createdAt,value
2018-03-25T00:02:01.920Z,40.38
2018-03-25T00:04:28.367Z,40.67
2018-03-25T00:06:54.825Z,40.55
2018-03-25T00:09:21.366Z,43.63
2018-03-25T00:11:48.640Z,40.47
2018-03-25T00:14:15.783Z,41.63
2018-03-25T00:16:42.217Z,44.28
2018-03-25T00:19:08.668Z,47.60
2018-03-25T00:21:35.065Z,48.38
2018-03-25T00:24:02.276Z,54.40
2018-03-25T00:26:28.712Z,56.78
2018-03-25T00:28:55.151Z,98.07
2018-03-25T00:31:22.378Z,153.40
2018-03-25T00:33:48.896Z,112.35
2018-03-25T00:36:16.170Z,113.90
2018-03-25T00:38:43.346Z,76.03
2018-03-25T00:41:09.733Z,70.55
2018-03-25T00:43:36.177Z,67.72
2018-03-25T00:46:02.629Z,61.33
2018-03-25T00:48:29.051Z,57.33
2018-03-25T00:50:56.260Z,56.67
2018-03-25T00:53:22.666Z,64.22
2018-03-25T00:55:49.118Z,51.55
2018-03-25T00:58:15.613Z,41.83
2018-03-25T01:00:42.020Z,51.60
2018-03-25T01:03:08.429Z,68.07
2018-03-25T01:05:34.977Z,147.15
2018-03-25T01:08:01.528Z,138.20
2018-03-25T01:10:28.828Z,137.43
2018-03-25T01:12:55.313Z,104.47
2018-03-25T01:15:21.820Z,82.40
2018-03-25T01:17:48.982Z,72.55
2018-03-25T01:20:16.166Z,71.93
2018-03-25T01:22:43.312Z,50.15
2018-03-25T01:25:09.734Z,50.88
2018-03-25T01:27:36.250Z,45.75
2018-03-25T01:30:02.785Z,39.50
2018-03-25T01:32:29.994Z,42.40
2018-03-25T01:34:56.397Z,39.30
2018-03-25T01:37:22.827Z,42.33
2018-03-25T01:39:49.288Z,42.13
2018-03-25T01:42:15.682Z,38.70
2018-03-25T01:44:42.087Z,46.37
2018-03-25T01:47:08.502Z,41.80
2018-03-25T01:49:35.667Z,37.28
2018-03-25T01:52:02.129Z,38.10
2018-03-25T01:54:32.878Z,39.65
2018-03-25T01:57:00.053Z,38.90
2018-03-25T01:59:27.209Z,39.20
2018-03-25T02:01:53.602Z,42.20
2018-03-25T02:04:22.008Z,40.53
2018-03-25T02:06:48.450Z,41.08
2018-03-25T02:09:14.880Z,39.10
2018-03-25T02:11:41.856Z,43.58
2018-03-25T02:14:08.260Z,39.95
2018-03-25T02:16:34.712Z,42.33
2018-03-25T02:19:01.140Z,41.10
2018-03-25T02:21:28.320Z,42.65
2018-03-25T02:23:54.897Z,39.40
2018-03-25T02:26:21.327Z,40.58
2018-03-25T02:28:48.597Z,40.38
2018-03-25T02:31:15.814Z,43.45
2018-03-25T02:33:42.336Z,41.65
2018-03-25T02:36:08.765Z,43.30
2018-03-25T02:38:35.161Z,39.53
2018-03-25T02:41:07.489Z,43.15
2018-03-25T02:43:33.900Z,40.95
2018-03-25T02:46:00.360Z,42.05
2018-03-25T02:48:26.785Z,44.83
2018-03-25T02:50:53.969Z,40.92
2018-03-25T02:53:21.125Z,40.88
2018-03-25T02:55:48.056Z,42.47
2018-03-25T02:58:14.555Z,40.05
2018-03-25T03:00:40.995Z,41.90
2018-03-25T03:03:08.023Z,40.53
2018-03-25T03:05:34.440Z,40.78
2018-03-25T03:08:01.590Z,38.95
2018-03-25T03:10:28.784Z,40.95
2018-03-25T03:12:55.989Z,40.35
2018-03-25T03:15:22.411Z,46.33
2018-03-25T03:17:48.873Z,40.33
2018-03-25T03:20:16.078Z,41.95
2018-03-25T03:22:42.480Z,41.85
2018-03-25T03:25:08.886Z,43.75
2018-03-25T03:27:35.315Z,43.60
2018-03-25T03:30:01.771Z,39.15
2018-03-25T03:32:28.921Z,44.13
2018-03-25T03:34:55.347Z,46.03
2018-03-25T03:37:21.734Z,47.05
2018-03-25T03:39:48.147Z,44.92
2018-03-25T03:42:14.562Z,46.08
2018-03-25T03:44:41.731Z,45.35
2018-03-25T03:47:08.879Z,47.13
2018-03-25T03:49:35.267Z,42.67
2018-03-25T03:52:02.436Z,48.45
2018-03-25T03:54:29.614Z,45.45
2018-03-25T03:56:56.038Z,48.00
2018-03-25T03:59:22.440Z,43.78
2018-03-25T04:01:48.851Z,42.55
2018-03-25T04:04:16.005Z,42.17
2018-03-25T04:06:42.443Z,43.28
2018-03-25T04:09:09.596Z,47.88
2018-03-25T04:11:36.004Z,49.90
2018-03-25T04:14:03.237Z,47.88
2018-03-25T04:16:30.401Z,45.72
2018-03-25T04:18:56.783Z,45.03
2018-03-25T04:21:23.188Z,49.17
2018-03-25T04:23:50.304Z,49.42
2018-03-25T04:26:16.708Z,43.85
2018-03-25T04:28:43.829Z,48.10
2018-03-25T04:31:10.228Z,45.97
2018-03-25T04:33:37.367Z,46.45
2018-03-25T04:36:03.869Z,46.42
2018-03-25T04:38:30.424Z,49.67
2018-03-25T04:40:57.559Z,44.20
2018-03-25T04:43:23.979Z,47.75
2018-03-25T04:45:50.368Z,42.60
2018-03-25T04:48:16.884Z,46.20
2018-03-25T04:50:43.300Z,45.08
2018-03-25T04:53:10.428Z,49.45
2018-03-25T04:55:36.838Z,49.35
2018-03-25T04:58:04.117Z,51.15
2018-03-25T05:00:31.290Z,51.45
2018-03-25T05:02:58.462Z,52.20
2018-03-25T05:05:25.618Z,50.70
2018-03-25T05:07:52.789Z,45.17
2018-03-25T05:10:19.980Z,47.83
2018-03-25T05:12:47.127Z,48.95
2018-03-25T05:15:13.568Z,52.42
2018-03-25T05:17:40.009Z,49.70
2018-03-25T05:20:06.963Z,49.45
2018-03-25T05:22:33.993Z,49.13
2018-03-25T05:25:01.172Z,49.58
2018-03-25T05:27:28.421Z,45.53
2018-03-25T05:29:54.802Z,52.35
2018-03-25T05:32:21.937Z,47.85
2018-03-25T05:34:48.322Z,47.67
2018-03-25T05:37:15.495Z,48.47
2018-03-25T05:39:42.670Z,49.25
2018-03-25T05:42:09.842Z,50.17
2018-03-25T05:44:37.007Z,44.25
2018-03-25T05:47:04.234Z,46.15
2018-03-25T05:49:30.748Z,45.75
2018-03-25T05:51:57.241Z,46.75
2018-03-25T05:54:23.640Z,44.47
2018-03-25T05:56:50.120Z,42.53
2018-03-25T05:59:16.589Z,45.22
2018-03-25T06:01:43.017Z,43.78
2018-03-25T06:04:10.283Z,39.33
2018-03-25T06:06:37.434Z,44.90
2018-03-25T06:09:04.749Z,46.53
2018-03-25T06:11:32.023Z,47.83
2018-03-25T06:13:58.582Z,43.42
2018-03-25T06:16:25.063Z,44.35
2018-03-25T06:18:51.453Z,42.33
2018-03-25T06:21:19.384Z,40.42
2018-03-25T06:23:46.533Z,42.97
2018-03-25T06:26:12.974Z,39.08
2018-03-25T06:28:39.401Z,42.83
2018-03-25T06:31:05.763Z,38.15
2018-03-25T06:33:32.208Z,41.13
2018-03-25T06:35:58.617Z,39.05
2018-03-25T06:38:25.088Z,40.67
2018-03-25T06:40:51.533Z,40.67
2018-03-25T06:43:18.692Z,41.07
2018-03-25T06:45:45.133Z,41.00
2018-03-25T06:48:11.561Z,41.00
2018-03-25T06:50:38.982Z,40.00
2018-03-25T06:53:05.403Z,41.70
2018-03-25T06:55:31.828Z,39.73
2018-03-25T06:57:58.236Z,42.03
2018-03-25T07:00:24.729Z,45.97
2018-03-25T07:02:51.183Z,41.70
2018-03-25T07:05:18.458Z,40.90
2018-03-25T07:07:45.660Z,49.77
2018-03-25T07:10:12.151Z,41.80
2018-03-25T07:12:39.385Z,42.20
2018-03-25T07:15:05.839Z,47.53
2018-03-25T07:17:32.331Z,43.07
2018-03-25T07:19:58.738Z,42.73
2018-03-25T07:22:25.161Z,41.90
2018-03-25T07:24:53.063Z,41.80
2018-03-25T07:27:20.211Z,43.53
2018-03-25T07:29:48.243Z,41.00
2018-03-25T07:32:14.648Z,41.40
2018-03-25T07:34:41.070Z,41.53
2018-03-25T07:37:07.503Z,43.53
2018-03-25T07:39:34.658Z,42.13
2018-03-25T07:42:01.080Z,40.50
2018-03-25T07:44:27.560Z,40.80
2018-03-25T07:46:53.988Z,39.00
2018-03-25T07:49:20.404Z,38.10
2018-03-25T07:51:47.164Z,39.80
2018-03-25T07:54:13.691Z,37.77
2018-03-25T07:56:40.177Z,37.77
2018-03-25T07:59:07.453Z,37.67
2018-03-25T08:01:34.626Z,38.07
2018-03-25T08:04:01.805Z,36.07
2018-03-25T08:06:28.202Z,37.00
2018-03-25T08:08:54.618Z,37.90
2018-03-25T08:11:21.031Z,36.40
2018-03-25T08:13:47.455Z,36.50
2018-03-25T08:16:13.955Z,36.33
2018-03-25T08:18:41.151Z,35.97
2018-03-25T08:21:08.290Z,36.10
2018-03-25T08:23:34.700Z,36.57
2018-03-25T08:26:01.143Z,35.47
2018-03-25T08:28:27.570Z,36.20
2018-03-25T08:30:53.972Z,37.43
2018-03-25T08:33:20.380Z,36.53
2018-03-25T08:35:46.969Z,35.40
2018-03-25T08:38:13.413Z,35.43
2018-03-25T08:40:39.851Z,34.57
2018-03-25T08:43:06.334Z,37.10
2018-03-25T08:45:32.765Z,35.37
2018-03-25T08:47:59.304Z,36.07
2018-03-25T08:50:25.817Z,36.40
2018-03-25T08:52:52.355Z,35.70
2018-03-25T08:55:19.629Z,35.67
2018-03-25T08:57:46.832Z,35.57
2018-03-25T09:00:13.307Z,34.07
2018-03-25T09:02:39.876Z,35.30
2018-03-25T09:05:06.340Z,35.23
2018-03-25T09:07:32.934Z,33.10
2018-03-25T09:10:00.092Z,34.20
2018-03-25T09:12:27.276Z,33.70
2018-03-25T09:14:54.459Z,35.13
2018-03-25T09:17:20.890Z,34.17
2018-03-25T09:19:50.082Z,36.40
2018-03-25T09:22:16.554Z,32.85
2018-03-25T09:24:43.140Z,33.58
2018-03-25T09:27:10.414Z,33.95
2018-03-25T09:29:37.688Z,36.20
2018-03-25T09:32:04.185Z,35.30
2018-03-25T09:34:30.628Z,32.78
2018-03-25T09:36:57.041Z,32.67
2018-03-25T09:39:24.332Z,32.90
2018-03-25T09:41:50.894Z,33.22
2018-03-25T09:44:17.448Z,32.95
2018-03-25T09:46:44.789Z,35.95
2018-03-25T09:49:11.263Z,33.75
2018-03-25T09:51:39.091Z,36.10
2018-03-25T09:54:05.579Z,34.92
2018-03-25T09:56:31.994Z,34.78
2018-03-25T09:58:58.422Z,32.40
2018-03-25T10:01:46.059Z,36.20
2018-03-25T10:04:13.199Z,33.28
2018-03-25T10:06:40.261Z,32.42
2018-03-25T10:09:06.778Z,32.30
2018-03-25T10:11:33.246Z,32.90
2018-03-25T10:14:00.394Z,32.83
2018-03-25T10:16:26.858Z,31.73
2018-03-25T10:18:53.319Z,34.22
2018-03-25T10:21:19.710Z,31.17
2018-03-25T10:23:46.147Z,35.40
2018-03-25T10:26:12.567Z,32.90
2018-03-25T10:28:39.016Z,31.33
2018-03-25T10:31:06.163Z,34.58
2018-03-25T10:33:32.658Z,35.00
2018-03-25T10:35:59.108Z,33.20
2018-03-25T10:38:26.295Z,36.88
2018-03-25T10:40:52.839Z,30.88
2018-03-25T10:43:20.018Z,34.55
2018-03-25T10:45:46.465Z,35.50
2018-03-25T10:48:13.846Z,36.67
2018-03-25T10:50:41.027Z,33.80
2018-03-25T10:53:07.986Z,32.10
2018-03-25T10:55:34.443Z,34.75
2018-03-25T10:58:02.165Z,36.17
2018-03-25T11:00:28.576Z,37.25
2018-03-25T11:02:56.252Z,32.30
2018-03-25T11:05:23.539Z,33.75
2018-03-25T11:07:50.818Z,34.78
2018-03-25T11:10:17.374Z,36.42
2018-03-25T11:12:44.365Z,35.08
2018-03-25T11:15:10.814Z,33.85
2018-03-25T11:17:37.365Z,35.50
2018-03-25T11:20:03.913Z,33.97
2018-03-25T11:22:31.180Z,36.60
2018-03-25T11:24:58.345Z,36.08
2018-03-25T11:27:25.533Z,37.38
2018-03-25T11:29:52.733Z,34.10
2018-03-25T11:32:19.722Z,36.40
2018-03-25T11:34:46.184Z,35.80
2018-03-25T11:37:12.620Z,36.83
2018-03-25T11:39:39.043Z,35.72
2018-03-25T11:42:06.231Z,35.33
2018-03-25T11:44:32.770Z,34.33
2018-03-25T11:47:00.150Z,36.97
2018-03-25T11:49:26.708Z,34.47
2018-03-25T11:51:53.988Z,34.67
2018-03-25T11:54:20.540Z,40.05
2018-03-25T11:56:47.098Z,34.58
2018-03-25T11:59:13.603Z,35.83
2018-03-25T12:01:40.215Z,35.97
2018-03-25T12:04:07.474Z,39.90
2018-03-25T12:06:34.673Z,39.03
2018-03-25T12:09:01.168Z,37.28
2018-03-25T12:11:27.623Z,37.85
2018-03-25T12:13:54.134Z,40.35
2018-03-25T12:16:21.345Z,40.08
2018-03-25T12:18:48.305Z,40.97
2018-03-25T12:21:14.755Z,40.55
2018-03-25T12:23:41.182Z,38.20
2018-03-25T12:26:07.798Z,40.05
2018-03-25T12:28:34.242Z,37.67
2018-03-25T12:31:00.681Z,40.63
2018-03-25T12:33:27.104Z,39.80
2018-03-25T12:35:54.334Z,41.03
2018-03-25T12:38:20.771Z,41.40
2018-03-25T12:40:47.192Z,40.97
2018-03-25T12:43:14.353Z,44.28
2018-03-25T12:45:41.539Z,38.30
2018-03-25T12:48:08.686Z,41.60
2018-03-25T12:50:35.094Z,40.88
2018-03-25T12:53:01.570Z,42.47
2018-03-25T12:55:27.976Z,41.63
2018-03-25T12:57:55.166Z,44.03
2018-03-25T13:00:21.595Z,45.75
2018-03-25T13:02:49.623Z,44.95
2018-03-25T13:05:16.525Z,42.92
2018-03-25T13:07:42.970Z,39.95
2018-03-25T13:10:09.415Z,42.45
2018-03-25T13:12:35.879Z,43.83
2018-03-25T13:15:02.320Z,43.90
2018-03-25T13:17:28.771Z,42.50
2018-03-25T13:19:55.241Z,43.95
2018-03-25T13:22:21.715Z,42.62
2018-03-25T13:24:48.179Z,42.17
2018-03-25T13:27:14.734Z,42.03
2018-03-25T13:29:41.173Z,40.17
2018-03-25T13:32:07.616Z,41.33
2018-03-25T13:34:34.018Z,46.08
2018-03-25T13:37:00.414Z,45.65
2018-03-25T13:39:26.874Z,45.50
2018-03-25T13:41:53.384Z,42.97
2018-03-25T13:44:19.965Z,45.05
2018-03-25T13:46:47.137Z,44.50
2018-03-25T13:49:14.316Z,45.17
2018-03-25T13:51:40.739Z,41.78
2018-03-25T13:54:07.451Z,42.58
2018-03-25T13:56:34.551Z,44.03
2018-03-25T13:59:00.950Z,45.38
2018-03-25T14:01:28.121Z,43.22
2018-03-25T14:03:55.295Z,41.78
2018-03-25T14:06:22.459Z,41.33
2018-03-25T14:08:49.639Z,42.53
2018-03-25T14:11:16.807Z,42.72
2018-03-25T14:13:43.237Z,47.90
2018-03-25T14:16:09.704Z,45.30
2018-03-25T14:18:36.241Z,42.83
2018-03-25T14:21:02.678Z,45.85
2018-03-25T14:23:29.124Z,43.53
2018-03-25T14:25:55.570Z,48.15
2018-03-25T14:28:22.004Z,43.83
2018-03-25T14:30:48.617Z,42.03
2018-03-25T14:33:15.115Z,42.95
2018-03-25T14:35:42.302Z,43.15
2018-03-25T14:38:08.730Z,42.83
2018-03-25T14:40:35.172Z,41.30
2018-03-25T14:43:01.667Z,43.40
2018-03-25T14:45:28.133Z,41.42
2018-03-25T14:47:54.786Z,40.55
2018-03-25T14:50:21.811Z,43.40
2018-03-25T14:52:48.311Z,41.42
2018-03-25T14:55:15.518Z,41.72
2018-03-25T14:57:41.998Z,40.90
2018-03-25T15:00:08.563Z,42.00
2018-03-25T15:02:35.097Z,41.88
2018-03-25T15:05:01.546Z,43.92
2018-03-25T15:07:28.070Z,53.38
2018-03-25T15:09:54.606Z,45.20
2018-03-25T15:12:21.106Z,40.33
2018-03-25T15:14:48.265Z,42.28
2018-03-25T15:17:14.721Z,42.55
2018-03-25T15:19:41.276Z,42.13
2018-03-25T15:22:07.827Z,42.85
2018-03-25T15:24:34.427Z,41.55
2018-03-25T15:27:00.895Z,40.22
2018-03-25T15:29:27.362Z,43.00
2018-03-25T15:31:53.824Z,39.95
2018-03-25T15:34:20.271Z,42.70
2018-03-25T15:36:46.724Z,40.53
2018-03-25T15:39:13.183Z,41.75
2018-03-25T15:41:39.644Z,42.35
2018-03-25T15:44:06.203Z,41.65
2018-03-25T15:46:32.697Z,40.63
2018-03-25T15:48:59.870Z,45.60
2018-03-25T15:51:27.094Z,43.60
2018-03-25T15:53:53.505Z,42.78
2018-03-25T15:56:19.969Z,45.58
2018-03-25T15:58:46.514Z,43.50
2018-03-25T16:01:13.680Z,43.67
2018-03-25T16:03:40.107Z,41.17
2018-03-25T16:06:06.528Z,45.17
2018-03-25T16:08:33.009Z,43.60
2018-03-25T16:10:59.611Z,43.83
2018-03-25T16:13:26.840Z,46.13
2018-03-25T16:15:53.315Z,49.38
2018-03-25T16:18:20.305Z,46.00
2018-03-25T16:20:46.780Z,47.95
2018-03-25T16:23:13.944Z,47.33
2018-03-25T16:25:40.395Z,50.63
2018-03-25T16:28:07.614Z,47.13
2018-03-25T16:30:34.141Z,42.62
2018-03-25T16:33:00.687Z,42.97
2018-03-25T16:35:27.214Z,43.97
2018-03-25T16:37:53.807Z,47.42
2018-03-25T16:40:20.362Z,46.35
2018-03-25T16:42:46.815Z,44.25
2018-03-25T16:45:14.092Z,50.80
2018-03-25T16:47:41.866Z,45.38
2018-03-25T16:50:09.857Z,43.17
2018-03-25T16:52:37.142Z,43.90
2018-03-25T16:55:04.419Z,48.22
2018-03-25T16:57:30.851Z,44.38
2018-03-25T16:59:57.323Z,47.83
2018-03-25T17:02:24.605Z,45.05
2018-03-25T17:04:51.076Z,46.45
2018-03-25T17:07:17.618Z,45.30
2018-03-25T17:09:44.745Z,46.08
2018-03-25T17:12:11.176Z,43.47
2018-03-25T17:14:37.545Z,47.67
2018-03-25T17:17:04.125Z,46.53
2018-03-25T17:19:30.545Z,45.95
2018-03-25T17:21:57.070Z,45.78
2018-03-25T17:24:23.471Z,51.80
2018-03-25T17:26:49.897Z,50.70
2018-03-25T17:29:16.445Z,97.97
2018-03-25T17:31:45.004Z,76.87
2018-03-25T17:34:11.430Z,49.55
2018-03-25T17:36:37.892Z,68.43
2018-03-25T17:39:04.426Z,52.10
2018-03-25T17:41:30.893Z,52.25
2018-03-25T17:43:57.462Z,49.80
2018-03-25T17:46:23.954Z,47.95
2018-03-25T17:48:50.515Z,52.05
2018-03-25T17:51:16.998Z,46.00
2018-03-25T17:53:44.285Z,49.85
2018-03-25T17:56:10.684Z,59.00
2018-03-25T17:58:37.886Z,45.53
2018-03-25T18:01:04.317Z,53.85
2018-03-25T18:03:31.407Z,52.20
2018-03-25T18:05:58.315Z,53.92
2018-03-25T18:08:24.966Z,52.03
2018-03-25T18:10:51.529Z,53.20
2018-03-25T18:13:17.989Z,50.67
2018-03-25T18:15:44.840Z,49.85
2018-03-25T18:18:12.049Z,53.92
2018-03-25T18:20:39.796Z,55.50
2018-03-25T18:23:06.418Z,53.78
2018-03-25T18:25:32.900Z,51.78
2018-03-25T18:28:04.615Z,53.63
2018-03-25T18:30:31.998Z,57.05
2018-03-25T18:33:01.120Z,52.83
2018-03-25T18:35:27.586Z,59.30
2018-03-25T18:37:55.478Z,52.13
2018-03-25T18:40:22.397Z,52.78
2018-03-25T18:42:50.118Z,55.12
2018-03-25T18:45:18.118Z,55.97
2018-03-25T18:47:44.598Z,54.92
2018-03-25T18:50:11.888Z,55.03
2018-03-25T18:52:39.585Z,65.12
2018-03-25T18:55:06.855Z,62.62
2018-03-25T18:57:33.515Z,60.55
2018-03-25T19:00:00.791Z,59.80
2018-03-25T19:02:27.315Z,60.60
2018-03-25T19:04:53.864Z,63.35
2018-03-25T19:07:20.569Z,59.67
2018-03-25T19:09:48.461Z,59.42
2018-03-25T19:12:14.966Z,61.67
2018-03-25T19:14:41.371Z,61.92
2018-03-25T19:17:07.938Z,62.30
2018-03-25T19:19:34.484Z,63.45
2018-03-25T19:22:01.864Z,69.90
2018-03-25T19:24:28.422Z,66.47
2018-03-25T19:26:55.594Z,63.47
2018-03-25T19:29:22.079Z,69.15
2018-03-25T19:31:49.956Z,66.68
2018-03-25T19:34:17.616Z,66.45
2018-03-25T19:36:45.143Z,74.50
2018-03-25T19:39:11.667Z,64.35
2018-03-25T19:41:38.423Z,67.62
2018-03-25T19:44:04.978Z,66.72
2018-03-25T19:46:32.476Z,61.08
2018-03-25T19:49:00.043Z,61.95
2018-03-25T19:51:26.539Z,63.97
2018-03-25T19:53:53.161Z,63.85
2018-03-25T19:56:19.589Z,60.25
2018-03-25T19:58:46.279Z,62.67
2018-03-25T20:01:12.810Z,61.72
2018-03-25T20:03:39.314Z,64.22
2018-03-25T20:06:05.794Z,65.20
2018-03-25T20:08:32.508Z,60.85
2018-03-25T20:11:01.038Z,79.40
2018-03-25T20:13:27.563Z,75.03
2018-03-25T20:15:54.807Z,64.15
2018-03-25T20:18:21.410Z,61.28
2018-03-25T20:20:47.842Z,60.50
2018-03-25T20:23:15.006Z,60.78
2018-03-25T20:25:41.462Z,59.05
2018-03-25T20:28:09.636Z,57.88
2018-03-25T20:30:38.287Z,59.17
2018-03-25T20:33:05.462Z,60.88
2018-03-25T20:35:31.894Z,58.10
2018-03-25T20:37:58.356Z,67.65
2018-03-25T20:40:25.519Z,60.92
2018-03-25T20:42:52.717Z,63.78
2018-03-25T20:45:19.655Z,61.17
2018-03-25T20:47:46.119Z,61.55
2018-03-25T20:50:12.560Z,60.10
2018-03-25T20:52:39.020Z,63.75
2018-03-25T20:55:05.528Z,58.50
2018-03-25T20:57:31.996Z,59.13
2018-03-25T20:59:58.434Z,56.35
2018-03-25T21:02:24.814Z,54.03
2018-03-25T21:04:51.282Z,57.33
2018-03-25T21:07:17.703Z,65.28
2018-03-25T21:09:44.162Z,58.15
2018-03-25T21:12:10.702Z,60.03
2018-03-25T21:14:37.874Z,58.42
2018-03-25T21:17:05.200Z,54.65
2018-03-25T21:19:31.641Z,57.28
2018-03-25T21:21:58.135Z,57.22
2018-03-25T21:24:24.572Z,59.63
2018-03-25T21:26:51.000Z,61.72
2018-03-25T21:29:17.533Z,57.78
2018-03-25T21:31:44.765Z,60.63
2018-03-25T21:34:11.207Z,58.92
2018-03-25T21:36:37.722Z,59.03
2018-03-25T21:39:04.898Z,57.78
2018-03-25T21:41:31.375Z,69.03
2018-03-25T21:43:57.791Z,59.67
2018-03-25T21:46:24.982Z,65.00
2018-03-25T21:48:51.428Z,60.10
2018-03-25T21:51:18.582Z,58.80
2018-03-25T21:53:45.007Z,58.42
2018-03-25T21:56:11.456Z,63.58
2018-03-25T21:58:37.879Z,58.65
2018-03-25T22:01:04.392Z,55.83
2018-03-25T22:03:30.899Z,57.45
2018-03-25T22:05:57.344Z,61.75
2018-03-25T22:08:24.516Z,61.17
2018-03-25T22:10:51.789Z,62.97
2018-03-25T22:13:18.971Z,59.55
2018-03-25T22:15:45.395Z,67.25
2018-03-25T22:18:11.813Z,66.68
2018-03-25T22:20:38.229Z,66.93
2018-03-25T22:23:05.403Z,58.20
2018-03-25T22:25:31.851Z,60.03
2018-03-25T22:27:59.055Z,64.82
2018-03-25T22:30:25.463Z,60.70
2018-03-25T22:32:52.656Z,59.60
2018-03-25T22:35:19.802Z,61.50
2018-03-25T22:37:46.996Z,64.80
2018-03-25T22:40:14.173Z,64.25
2018-03-25T22:42:41.316Z,62.72
2018-03-25T22:45:07.742Z,59.35
2018-03-25T22:47:34.149Z,64.65
2018-03-25T22:50:01.324Z,57.83
2018-03-25T22:52:28.489Z,61.05
2018-03-25T22:54:55.608Z,60.35
2018-03-25T22:57:23.086Z,61.40
2018-03-25T22:59:49.512Z,60.88
2018-03-25T23:02:16.063Z,60.55
2018-03-25T23:04:43.338Z,62.05
2018-03-25T23:07:10.505Z,62.45
2018-03-25T23:09:37.633Z,66.00
2018-03-25T23:12:04.133Z,64.90
2018-03-25T23:14:31.294Z,63.80
2018-03-25T23:16:58.438Z,60.33
2018-03-25T23:19:24.882Z,64.07
2018-03-25T23:21:51.292Z,64.82
2018-03-25T23:24:18.444Z,59.70
2018-03-25T23:26:44.849Z,62.65
2018-03-25T23:29:11.301Z,62.50
2018-03-25T23:31:37.702Z,65.80
2018-03-25T23:34:04.133Z,64.37
2018-03-25T23:36:30.531Z,63.42
2018-03-25T23:38:57.819Z,65.75
2018-03-25T23:41:24.273Z,67.05
2018-03-25T23:43:51.593Z,62.22
2018-03-25T23:46:18.110Z,63.30
2018-03-25T23:48:44.535Z,55.75
2018-03-25T23:51:10.955Z,64.82
2018-03-25T23:53:37.477Z,65.35
2018-03-25T23:56:04.629Z,62.58
2018-03-25T23:58:31.035Z,63.10
